createdAt,value
2022-09-17T00:01:21.144Z,10.10
2022-09-17T00:03:53.067Z,10.00
2022-09-17T00:06:20.820Z,10.00
2022-09-17T00:08:48.019Z,9.90
2022-09-17T00:11:21.712Z,9.80
2022-09-17T00:13:49.769Z,9.80
2022-09-17T00:16:27.473Z,9.80
2022-09-17T00:18:55.338Z,9.80
2022-09-17T00:21:22.960Z,9.90
2022-09-17T00:23:53.655Z,9.90
2022-09-17T00:26:20.832Z,10.00
2022-09-17T00:28:51.944Z,9.90
2022-09-17T00:31:19.419Z,9.80
2022-09-17T00:33:46.150Z,9.80
2022-09-17T00:36:12.872Z,9.60
2022-09-17T00:38:39.760Z,9.80
2022-09-17T00:41:08.275Z,9.80
2022-09-17T00:43:38.228Z,9.90
2022-09-17T00:46:12.054Z,9.90
2022-09-17T00:48:39.605Z,9.90
2022-09-17T00:51:08.195Z,9.90
2022-09-17T00:53:35.291Z,9.80
2022-09-17T00:56:12.160Z,9.80
2022-09-17T00:58:41.461Z,9.90
2022-09-17T01:01:08.846Z,9.90
2022-09-17T01:03:35.676Z,9.80
2022-09-17T01:06:12.076Z,9.90
2022-09-17T01:08:57.968Z,9.70
2022-09-17T01:11:59.429Z,9.70
2022-09-17T01:14:58.780Z,9.80
2022-09-17T01:17:55.036Z,9.90
2022-09-17T01:20:50.543Z,9.80
2022-09-17T01:23:41.103Z,9.90
2022-09-17T01:26:42.052Z,9.80
2022-09-17T01:29:20.715Z,9.70
2022-09-17T01:31:59.668Z,9.70
2022-09-17T01:34:34.608Z,9.60
2022-09-17T01:37:30.073Z,9.70
2022-09-17T01:40:28.979Z,9.60
2022-09-17T01:43:05.532Z,9.80
2022-09-17T01:46:02.810Z,9.80
2022-09-17T01:48:40.614Z,9.70
2022-09-17T01:51:08.907Z,9.70
2022-09-17T01:53:42.007Z,9.60
2022-09-17T01:56:10.695Z,9.70
2022-09-17T01:58:49.597Z,10.00
2022-09-17T02:01:20.427Z,9.90
2022-09-17T02:03:57.157Z,9.80
2022-09-17T02:06:30.449Z,9.90
2022-09-17T02:09:20.247Z,9.80
2022-09-17T02:11:55.366Z,9.60
2022-09-17T02:14:31.668Z,9.60
2022-09-17T02:17:07.365Z,9.60
2022-09-17T02:19:38.646Z,9.80
2022-09-17T02:22:08.051Z,9.80
2022-09-17T02:24:50.138Z,9.50
2022-09-17T02:27:29.790Z,9.50
2022-09-17T02:29:56.851Z,9.50
2022-09-17T02:32:24.894Z,9.40
2022-09-17T02:34:52.126Z,9.30
2022-09-17T02:37:19.264Z,9.20
2022-09-17T02:39:46.577Z,9.30
2022-09-17T02:42:40.747Z,9.40
2022-09-17T02:45:07.845Z,9.40
2022-09-17T02:48:05.287Z,9.50
2022-09-17T02:51:11.729Z,9.80
2022-09-17T02:54:12.738Z,10.10
2022-09-17T02:57:01.585Z,10.10
2022-09-17T02:59:44.188Z,10.50
2022-09-17T03:02:24.517Z,10.20
2022-09-17T03:04:52.705Z,10.60
2022-09-17T03:07:20.643Z,10.60
2022-09-17T03:09:47.964Z,10.60
2022-09-17T03:12:15.366Z,10.70
2022-09-17T03:14:42.393Z,10.80
2022-09-17T03:17:11.569Z,11.00
2022-09-17T03:19:38.611Z,11.10
2022-09-17T03:22:05.322Z,11.10
2022-09-17T03:24:32.368Z,11.20
2022-09-17T03:26:59.036Z,11.20
2022-09-17T03:29:26.279Z,11.20
2022-09-17T03:31:52.971Z,11.20
2022-09-17T03:34:21.034Z,11.20
2022-09-17T03:36:47.799Z,11.10
2022-09-17T03:39:14.540Z,11.20
2022-09-17T03:41:41.234Z,11.20
2022-09-17T03:44:07.993Z,11.00
2022-09-17T03:46:35.103Z,10.90
2022-09-17T03:49:01.867Z,10.90
2022-09-17T03:51:29.042Z,10.90
2022-09-17T03:53:55.997Z,11.00
2022-09-17T03:56:23.075Z,11.10
2022-09-17T03:58:49.797Z,11.00
2022-09-17T04:01:16.857Z,11.10
2022-09-17T04:03:44.306Z,11.20
2022-09-17T04:06:11.345Z,11.20
2022-09-17T04:08:38.056Z,11.10
2022-09-17T04:11:05.206Z,11.10
2022-09-17T04:13:31.924Z,11.10
2022-09-17T04:15:58.918Z,11.20
2022-09-17T04:18:25.624Z,11.30
2022-09-17T04:20:52.716Z,11.10
2022-09-17T04:23:19.577Z,11.00
2022-09-17T04:25:46.761Z,11.10
2022-09-17T04:28:13.641Z,11.20
2022-09-17T04:30:43.450Z,11.30
2022-09-17T04:33:10.764Z,11.30
2022-09-17T04:35:37.876Z,11.30
2022-09-17T04:38:04.539Z,11.40
2022-09-17T04:40:31.653Z,11.40
2022-09-17T04:42:59.879Z,11.20
2022-09-17T04:45:26.956Z,11.30
2022-09-17T04:47:54.190Z,11.20
2022-09-17T04:50:21.820Z,11.20
2022-09-17T04:52:49.238Z,11.20
2022-09-17T04:55:16.574Z,11.00
2022-09-17T04:57:48.801Z,10.90
2022-09-17T05:00:17.644Z,11.00
2022-09-17T05:02:49.778Z,11.20
2022-09-17T05:05:18.335Z,11.20
2022-09-17T05:07:45.449Z,11.50
2022-09-17T05:10:13.784Z,11.40
2022-09-17T05:12:40.976Z,11.60
2022-09-17T05:15:08.743Z,11.50
2022-09-17T05:17:35.388Z,11.60
2022-09-17T05:20:02.361Z,11.60
2022-09-17T05:22:29.044Z,11.70
2022-09-17T05:24:56.197Z,11.70
2022-09-17T05:27:22.848Z,11.80
2022-09-17T05:29:49.820Z,11.90
2022-09-17T05:32:17.029Z,12.00
2022-09-17T05:34:43.718Z,12.00
2022-09-17T05:37:11.631Z,12.10
2022-09-17T05:39:38.321Z,12.20
2022-09-17T05:42:05.602Z,12.20
2022-09-17T05:44:32.309Z,12.30
2022-09-17T05:46:59.703Z,12.50
2022-09-17T05:49:26.471Z,12.60
2022-09-17T05:51:53.484Z,12.50
2022-09-17T05:54:20.216Z,12.60
2022-09-17T05:56:46.875Z,12.60
2022-09-17T05:59:15.144Z,12.70
2022-09-17T06:01:42.548Z,12.70
2022-09-17T06:04:09.933Z,12.90
2022-09-17T06:06:37.925Z,12.90
2022-09-17T06:09:06.268Z,13.00
2022-09-17T06:11:32.947Z,13.10
2022-09-17T06:14:00.631Z,13.10
2022-09-17T06:16:28.149Z,13.10
2022-09-17T06:18:55.360Z,13.30
2022-09-17T06:21:23.396Z,13.40
2022-09-17T06:23:52.381Z,13.70
2022-09-17T06:26:19.446Z,13.70
2022-09-17T06:28:46.614Z,13.40
2022-09-17T06:31:14.220Z,13.20
2022-09-17T06:33:42.244Z,13.10
2022-09-17T06:36:14.090Z,13.10
2022-09-17T06:38:43.235Z,13.10
2022-09-17T06:41:09.956Z,13.10
2022-09-17T06:43:37.155Z,13.20
2022-09-17T06:46:09.589Z,13.40
2022-09-17T06:48:38.132Z,13.50
2022-09-17T06:51:08.055Z,13.60
2022-09-17T06:53:38.339Z,13.60
2022-09-17T06:56:06.989Z,13.60
2022-09-17T06:58:37.665Z,13.50
2022-09-17T07:01:05.645Z,13.50
2022-09-17T07:03:36.801Z,13.40
2022-09-17T07:06:04.198Z,13.60
2022-09-17T07:08:39.947Z,13.70
2022-09-17T07:11:06.831Z,13.90
2022-09-17T07:13:36.927Z,14.20
2022-09-17T07:16:05.432Z,14.20
2022-09-17T07:18:32.867Z,14.10
2022-09-17T07:21:05.407Z,13.90
2022-09-17T07:23:34.125Z,13.90
2022-09-17T07:26:04.147Z,13.80
2022-09-17T07:28:31.296Z,13.80
2022-09-17T07:30:58.335Z,13.70
2022-09-17T07:33:28.159Z,13.70
2022-09-17T07:36:00.074Z,13.80
2022-09-17T07:38:30.666Z,14.00
2022-09-17T07:41:19.882Z,13.90
2022-09-17T07:43:47.084Z,13.80
2022-09-17T07:46:19.653Z,13.90
2022-09-17T07:48:48.691Z,13.90
2022-09-17T07:51:17.056Z,13.90
2022-09-17T07:53:44.635Z,13.90
2022-09-17T07:56:12.084Z,13.90
2022-09-17T07:58:39.518Z,14.20
2022-09-17T08:01:08.596Z,14.50
2022-09-17T08:03:36.550Z,14.50
2022-09-17T08:06:11.046Z,14.70
2022-09-17T08:08:39.494Z,14.90
2022-09-17T08:11:12.381Z,14.90
2022-09-17T08:13:40.080Z,14.80
2022-09-17T08:16:15.309Z,14.90
2022-09-17T08:18:43.740Z,14.80
2022-09-17T08:21:12.601Z,15.00
2022-09-17T08:23:41.723Z,15.20
2022-09-17T08:26:13.374Z,15.30
2022-09-17T08:28:40.397Z,15.50
2022-09-17T08:31:08.772Z,15.80
2022-09-17T08:33:38.316Z,16.10
2022-09-17T08:36:07.152Z,16.30
2022-09-17T08:38:38.956Z,16.10
2022-09-17T08:41:14.776Z,15.80
2022-09-17T08:44:05.432Z,15.40
2022-09-17T08:46:53.987Z,15.30
2022-09-17T08:49:37.099Z,15.30
2022-09-17T08:52:44.232Z,15.50
2022-09-17T08:55:33.998Z,15.90
2022-09-17T08:58:39.048Z,16.10
2022-09-17T09:01:28.114Z,16.20
2022-09-17T09:04:13.866Z,16.20
2022-09-17T09:06:51.479Z,15.70
2022-09-17T09:09:22.977Z,15.30
2022-09-17T09:11:53.634Z,15.00
2022-09-17T09:14:32.454Z,14.90
2022-09-17T09:17:03.834Z,14.70
2022-09-17T09:19:34.658Z,14.50
2022-09-17T09:22:11.507Z,14.50
2022-09-17T09:24:42.409Z,14.50
2022-09-17T09:27:20.273Z,14.70
2022-09-17T09:30:05.677Z,14.60
2022-09-17T09:33:02.928Z,14.70
2022-09-17T09:35:33.398Z,14.80
2022-09-17T09:38:10.785Z,14.80
2022-09-17T09:40:50.935Z,14.70
2022-09-17T09:44:05.766Z,14.60
2022-09-17T09:47:14.039Z,14.50
2022-09-17T09:49:40.660Z,14.50
2022-09-17T09:52:24.195Z,14.60
2022-09-17T09:55:16.116Z,14.60
2022-09-17T09:58:21.860Z,14.60
2022-09-17T10:00:48.815Z,14.70
2022-09-17T10:03:29.294Z,14.70
2022-09-17T10:06:02.059Z,14.80
2022-09-17T10:08:33.018Z,14.90
2022-09-17T10:11:06.743Z,14.90
2022-09-17T10:13:36.218Z,15.10
2022-09-17T10:16:20.892Z,15.40
2022-09-17T10:18:49.850Z,15.50
2022-09-17T10:21:31.025Z,15.60
2022-09-17T10:23:59.576Z,15.60
2022-09-17T10:26:29.631Z,15.50
2022-09-17T10:29:00.439Z,15.50
2022-09-17T10:31:27.177Z,15.50
2022-09-17T10:34:03.461Z,15.50
2022-09-17T10:36:44.953Z,15.60
2022-09-17T10:39:27.113Z,15.40
2022-09-17T10:42:18.537Z,15.30
2022-09-17T10:44:57.288Z,15.20
2022-09-17T10:47:36.100Z,15.10
2022-09-17T10:50:18.450Z,15.10
2022-09-17T10:52:51.857Z,15.10
2022-09-17T10:55:47.827Z,15.10
2022-09-17T10:58:16.122Z,15.20
2022-09-17T11:00:59.472Z,15.40
2022-09-17T11:03:40.317Z,15.90
2022-09-17T11:06:35.352Z,16.50
2022-09-17T11:09:10.957Z,17.30
2022-09-17T11:12:06.466Z,17.30
2022-09-17T11:14:52.880Z,17.30
2022-09-17T11:17:37.713Z,17.30
2022-09-17T11:20:23.236Z,17.40
2022-09-17T11:23:11.053Z,18.00
2022-09-17T11:26:18.824Z,17.70
2022-09-17T11:29:10.170Z,17.50
2022-09-17T11:32:18.531Z,17.30
2022-09-17T11:34:48.852Z,17.70
2022-09-17T11:37:24.088Z,18.00
2022-09-17T11:39:58.741Z,17.80
2022-09-17T11:42:32.348Z,17.70
2022-09-17T11:45:04.401Z,17.40
2022-09-17T11:47:37.535Z,17.50
2022-09-17T11:50:28.097Z,17.60
2022-09-17T11:53:15.862Z,17.40
2022-09-17T11:55:49.834Z,17.60
2022-09-17T11:58:41.160Z,17.90
2022-09-17T12:01:41.880Z,18.30
2022-09-17T12:04:30.825Z,18.20
2022-09-17T12:07:04.479Z,17.70
2022-09-17T12:09:34.669Z,17.40
2022-09-17T12:12:47.713Z,17.30
2022-09-17T12:15:23.248Z,17.40
2022-09-17T12:18:33.001Z,17.60
2022-09-17T12:21:05.664Z,18.00
2022-09-17T12:23:40.045Z,17.60
2022-09-17T12:26:44.497Z,17.50
2022-09-17T12:29:11.574Z,17.50
2022-09-17T12:32:00.607Z,17.60
2022-09-17T12:34:53.885Z,17.40
2022-09-17T12:37:50.173Z,17.00
2022-09-17T12:40:28.040Z,16.90
2022-09-17T12:43:37.865Z,17.40
2022-09-17T12:46:24.026Z,17.50
2022-09-17T12:49:07.520Z,17.70
2022-09-17T12:51:46.965Z,17.50
2022-09-17T12:54:41.789Z,17.70
2022-09-17T12:57:28.897Z,18.20
2022-09-17T13:00:08.617Z,18.40
2022-09-17T13:02:54.300Z,18.30
2022-09-17T13:06:03.228Z,18.40
2022-09-17T13:09:18.653Z,18.50
2022-09-17T13:12:06.959Z,18.70
2022-09-17T13:14:51.556Z,18.10
2022-09-17T13:18:12.293Z,17.70
2022-09-17T13:20:54.593Z,17.40
2022-09-17T13:23:52.003Z,17.40
2022-09-17T13:26:32.632Z,17.30
2022-09-17T13:28:59.400Z,17.10
2022-09-17T13:31:35.122Z,17.20
2022-09-17T13:34:03.225Z,17.30
2022-09-17T13:36:48.297Z,17.40
2022-09-17T13:39:45.018Z,17.40
2022-09-17T13:42:24.426Z,17.60
2022-09-17T13:45:08.774Z,17.80
2022-09-17T13:47:50.972Z,17.90
2022-09-17T13:50:28.624Z,18.10
2022-09-17T13:53:21.476Z,18.00
2022-09-17T13:56:01.974Z,17.50
2022-09-17T13:58:33.512Z,16.60
2022-09-17T14:01:05.597Z,15.70
2022-09-17T14:03:35.016Z,15.10
2022-09-17T14:06:22.491Z,15.10
2022-09-17T14:08:50.900Z,15.10
2022-09-17T14:11:28.070Z,15.30
2022-09-17T14:14:02.811Z,15.40
2022-09-17T14:16:33.798Z,15.70
2022-09-17T14:19:15.634Z,16.20
2022-09-17T14:22:06.472Z,16.40
2022-09-17T14:24:39.907Z,16.50
2022-09-17T14:27:13.156Z,16.50
2022-09-17T14:30:07.905Z,16.60
2022-09-17T14:32:42.356Z,16.60
2022-09-17T14:35:33.347Z,16.60
2022-09-17T14:38:08.229Z,16.50
2022-09-17T14:40:35.185Z,16.60
2022-09-17T14:43:03.853Z,16.30
2022-09-17T14:45:41.602Z,16.00
2022-09-17T14:48:27.164Z,15.90
2022-09-17T14:51:17.219Z,15.90
2022-09-17T14:53:48.994Z,16.00
2022-09-17T14:56:21.543Z,15.90
2022-09-17T14:58:56.494Z,15.70
2022-09-17T15:01:34.300Z,15.70
2022-09-17T15:04:15.925Z,15.50
2022-09-17T15:06:46.079Z,15.50
2022-09-17T15:09:17.724Z,15.50
2022-09-17T15:11:48.129Z,15.40
2022-09-17T15:14:30.200Z,15.40
2022-09-17T15:17:00.072Z,15.40
2022-09-17T15:19:36.350Z,15.30
2022-09-17T15:22:16.438Z,15.10
2022-09-17T15:24:58.100Z,15.10
2022-09-17T15:27:33.927Z,15.00
2022-09-17T15:30:13.847Z,14.90
2022-09-17T15:32:48.535Z,14.80
2022-09-17T15:35:15.552Z,14.80
2022-09-17T15:38:11.893Z,14.90
2022-09-17T15:40:41.846Z,15.10
2022-09-17T15:43:21.642Z,15.20
2022-09-17T15:45:48.898Z,15.30
2022-09-17T15:48:30.388Z,15.20
2022-09-17T15:51:00.452Z,15.10
2022-09-17T15:53:32.228Z,15.20
2022-09-17T15:56:09.848Z,15.20
2022-09-17T15:58:39.200Z,14.80
2022-09-17T16:01:15.350Z,14.30
2022-09-17T16:03:42.114Z,14.20
2022-09-17T16:06:17.939Z,14.20
2022-09-17T16:08:49.253Z,14.20
2022-09-17T16:11:24.745Z,14.20
2022-09-17T16:13:53.553Z,14.20
2022-09-17T16:16:26.606Z,14.20
2022-09-17T16:18:54.459Z,14.30
2022-09-17T16:21:21.265Z,14.30
2022-09-17T16:23:48.094Z,14.40
2022-09-17T16:26:21.211Z,14.20
2022-09-17T16:28:53.435Z,14.20
2022-09-17T16:31:20.916Z,14.20
2022-09-17T16:33:48.111Z,13.80
2022-09-17T16:36:20.260Z,13.80
2022-09-17T16:38:47.512Z,13.80
2022-09-17T16:41:14.218Z,13.80
2022-09-17T16:43:43.379Z,13.90
2022-09-17T16:46:11.491Z,13.80
2022-09-17T16:48:38.711Z,13.80
2022-09-17T16:51:12.784Z,13.60
2022-09-17T16:53:41.013Z,13.40
2022-09-17T16:56:13.311Z,12.80
2022-09-17T16:58:41.555Z,12.40
2022-09-17T17:01:13.102Z,12.10
2022-09-17T17:03:40.656Z,11.90
2022-09-17T17:06:15.149Z,11.90
2022-09-17T17:08:43.524Z,11.90
2022-09-17T17:11:11.676Z,11.80
2022-09-17T17:13:38.488Z,11.90
2022-09-17T17:16:12.410Z,12.00
2022-09-17T17:18:42.517Z,12.10
2022-09-17T17:21:10.956Z,12.20
2022-09-17T17:23:38.444Z,12.00
2022-09-17T17:26:05.324Z,11.80
2022-09-17T17:28:34.021Z,11.70
2022-09-17T17:31:01.317Z,11.70
2022-09-17T17:33:29.048Z,11.50
2022-09-17T17:36:07.329Z,11.40
2022-09-17T17:38:35.138Z,11.30
2022-09-17T17:41:14.032Z,11.30
2022-09-17T17:43:41.820Z,11.30
2022-09-17T17:46:10.620Z,11.30
2022-09-17T17:48:38.516Z,11.40
2022-09-17T17:51:09.692Z,11.50
2022-09-17T17:53:37.266Z,11.50
2022-09-17T17:56:06.775Z,11.50
2022-09-17T17:58:34.283Z,11.50
2022-09-17T18:01:12.971Z,11.70
2022-09-17T18:03:42.059Z,11.80
2022-09-17T18:06:08.991Z,11.80
2022-09-17T18:08:37.820Z,11.70
2022-09-17T18:11:04.837Z,11.60
2022-09-17T18:13:33.267Z,11.60
2022-09-17T18:16:00.968Z,11.60
2022-09-17T18:18:40.893Z,11.50
2022-09-17T18:21:17.923Z,11.50
2022-09-17T18:23:46.592Z,11.50
2022-09-17T18:26:18.145Z,11.60
2022-09-17T18:28:45.772Z,11.80
2022-09-17T18:31:26.608Z,11.60
2022-09-17T18:34:08.339Z,11.70
2022-09-17T18:36:36.301Z,12.00
2022-09-17T18:39:44.627Z,11.90
2022-09-17T18:41:53.059Z,11.90
2022-09-17T18:44:22.162Z,11.80
2022-09-17T18:46:51.848Z,11.80
2022-09-17T18:49:18.914Z,11.80
2022-09-17T18:51:45.998Z,11.70
2022-09-17T18:54:13.022Z,11.70
2022-09-17T18:56:41.796Z,11.70
2022-09-17T18:59:10.923Z,11.60
2022-09-17T19:01:38.021Z,11.70
2022-09-17T19:04:08.141Z,11.70
2022-09-17T19:06:35.193Z,11.60
2022-09-17T19:09:04.605Z,11.60
2022-09-17T19:11:31.336Z,11.60
2022-09-17T19:14:06.070Z,11.60
2022-09-17T19:16:32.949Z,11.60
2022-09-17T19:19:00.794Z,11.80
2022-09-17T19:21:27.658Z,11.60
2022-09-17T19:23:54.492Z,11.70
2022-09-17T19:26:26.867Z,11.80
2022-09-17T19:29:27.484Z,11.80
2022-09-17T19:31:55.111Z,11.50
2022-09-17T19:37:18.334Z,11.10
2022-09-17T19:40:23.064Z,11.10
2022-09-17T19:43:45.950Z,11.20
2022-09-17T20:12:57.272Z,10.50
2022-09-17T20:18:56.604Z,10.30
2022-09-17T20:21:30.303Z,10.20
2022-09-17T20:24:10.069Z,10.20
2022-09-17T20:26:42.174Z,10.10
2022-09-17T20:29:29.649Z,10.20
2022-09-17T20:31:56.462Z,10.20
2022-09-17T20:34:23.761Z,10.10
2022-09-17T20:37:06.589Z,10.10
2022-09-17T20:39:40.550Z,10.10
2022-09-17T20:42:07.365Z,10.10
2022-09-17T20:44:36.952Z,10.20
2022-09-17T20:47:03.759Z,10.20
2022-09-17T20:49:32.018Z,10.10
2022-09-17T20:51:58.982Z,10.10
2022-09-17T20:54:26.426Z,9.90
2022-09-17T20:56:53.168Z,10.10
2022-09-17T20:59:25.217Z,10.00
2022-09-17T21:01:53.768Z,10.00
2022-09-17T21:04:22.405Z,10.00
2022-09-17T21:06:53.062Z,10.10
2022-09-17T21:09:20.593Z,10.00
2022-09-17T21:11:50.698Z,10.10
2022-09-17T21:14:18.667Z,10.00
2022-09-17T21:16:46.838Z,10.00
2022-09-17T21:19:16.400Z,10.00
2022-09-17T21:21:44.990Z,9.80
2022-09-17T21:24:12.659Z,9.80
2022-09-17T21:26:39.594Z,9.70
2022-09-17T21:29:09.807Z,9.80
2022-09-17T21:31:39.621Z,9.60
2022-09-17T21:34:10.670Z,9.60
2022-09-17T21:36:39.084Z,9.40
2022-09-17T21:39:10.928Z,9.50
2022-09-17T21:41:42.514Z,9.30
2022-09-17T21:44:12.055Z,9.30
2022-09-17T21:46:43.231Z,9.20
2022-09-17T21:49:11.541Z,9.30
2022-09-17T21:51:40.794Z,9.30
2022-09-17T21:54:10.147Z,9.20
2022-09-17T21:56:37.299Z,9.20
2022-09-17T21:59:07.518Z,9.30
2022-09-17T22:01:39.866Z,9.40
2022-09-17T22:04:16.662Z,9.30
2022-09-17T22:06:45.408Z,9.30
2022-09-17T22:09:21.079Z,9.30
2022-09-17T22:11:48.526Z,9.30
2022-09-17T22:14:19.379Z,9.30
2022-09-17T22:16:53.424Z,9.30
2022-09-17T22:19:21.571Z,9.20
2022-09-17T22:21:51.662Z,9.30
2022-09-17T22:24:20.871Z,9.10
2022-09-17T22:26:56.558Z,9.00
2022-09-17T22:29:27.832Z,8.90
2022-09-17T22:31:54.978Z,8.90
2022-09-17T22:34:23.115Z,8.90
2022-09-17T22:36:50.372Z,8.90
2022-09-17T22:39:20.243Z,8.80
2022-09-17T22:41:47.951Z,8.90
2022-09-17T22:44:17.783Z,8.90
2022-09-17T22:46:47.305Z,8.90
2022-09-17T22:49:14.639Z,8.90
2022-09-17T22:51:42.949Z,8.90
2022-09-17T22:54:12.190Z,8.90
2022-09-17T22:56:39.439Z,9.00
2022-09-17T22:59:06.268Z,9.00
2022-09-17T23:01:34.941Z,8.90
2022-09-17T23:04:02.405Z,8.90
2022-09-17T23:06:32.503Z,9.00
2022-09-17T23:09:00.773Z,9.10
2022-09-17T23:11:33.960Z,8.80
2022-09-17T23:14:03.819Z,9.00
2022-09-17T23:16:36.956Z,9.00
2022-09-17T23:19:03.716Z,9.10
2022-09-17T23:21:30.930Z,9.20
2022-09-17T23:23:57.643Z,9.30
2022-09-17T23:26:26.724Z,9.50
2022-09-17T23:28:54.245Z,9.50
2022-09-17T23:31:27.185Z,9.60
2022-09-17T23:33:55.534Z,9.70
2022-09-17T23:36:27.978Z,9.80
2022-09-17T23:38:56.377Z,9.90
2022-09-17T23:41:26.696Z,10.00
2022-09-17T23:43:56.213Z,10.10
2022-09-17T23:46:26.019Z,10.10
2022-09-17T23:48:56.860Z,10.20
2022-09-17T23:51:26.373Z,10.30
2022-09-17T23:53:54.833Z,10.40
2022-09-17T23:56:25.100Z,10.40
2022-09-17T23:58:53.243Z,10.30
